Aviation Digital Data Service (ADDS)

Output produced by METARs form (1947 UTC 18 April 2021)
found at http://aviationweather.gov/metar/data/
 
KSNS 181853Z VRB03KT 10SM CLR 23/08 A2991 RMK AO2 PRESRR SLP136 T02330078
KSNS 181739Z 1818/1918 VRB03KT P6SM FEW003 
     FM182000 30010KT P6SM SKC 
     FM190100 32006KT P6SM SKC 
     FM190900 VRB03KT 4SM BR BKN005 
     FM191600 24005KT P6SM FEW008 SCT010
       
KMRY 181854Z VRB05KT 8SM CLR 16/09 A3014 RMK AO2 SLP217 T01560094
KMRY 181739Z 1818/1918 VRB03KT P6SM FEW007 
     FM182100 28009KT P6SM FEW200 
     FM190100 30009KT P6SM FEW200 
     FM190300 VRB05KT P6SM SCT005 
     FM190800 VRB03KT 3SM BR BKN005 
     FM191500 24005KT P6SM FEW008 SCT010
       
KSJC 181853Z 35005KT 10SM CLR 23/04 A3012 RMK AO2 SLP197 T02330039 $
KSJC 181739Z 1818/1918 VRB04KT P6SM SKC 
     FM182100 31011KT P6SM SKC 
     FM190400 30006KT P6SM FEW250 
     FM190700 VRB04KT P6SM FEW250 
     FM191200 VRB03KT P6SM SCT250
       
KRHV 181847Z 31005KT 10SM SKC 22/04 A3013
KSFO 181856Z 04003KT 10SM CLR 19/12 A3012 RMK AO2 SLP199 T01890117
KSFO 181739Z 1818/1924 VRB05KT P6SM FEW005 
     FM182100 30018KT P6SM FEW250 
     FM190300 30014KT P6SM FEW003 
     FM190800 28009KT P6SM SCT015 
     FM191000 30008KT 6SM BR BKN015 
     FM191700 28009KT P6SM FEW010 SCT250 
     FM191900 27015KT P6SM FEW250 
     FM192100 27015G20KT P6SM FEW250
       
KLVK 181853Z VRB05KT 10SM CLR 25/M03 A3011 RMK AO2 SLP192 T02501028
KLVK 181739Z 1818/1918 VRB04KT P6SM SKC 
     FM182200 27008KT P6SM SKC 
     FM190300 27005KT P6SM SKC 
     FM190600 VRB04KT P6SM SKC 
     FM191500 25008KT P6SM SKC
       
KMCE 181853Z AUTO VRB03KT 10SM CLR 26/02 A3009 RMK AO2 SLP189 T02560022 $
KMCE 181727Z 1818/1918 32006KT P6SM SKC